Time;durP1;ratioP1;P1;durP2;ratioP2;P2;SDS_P1;SDS_P2;PMS_P1;PMS_P2;Temp;Humidity;BMP_temperature;BMP_pressure;BME280_temperature;BME280_humidity;BME280_pressure;Samples;Min_cycle;Max_cycle;Signal;HPM_P1;HPM_P2
2021/05/23 00:02:00;;;;;;;7.95;3.78;;;;;;;16.18;55.33;94814.97;2955936;40;20093;-69
2021/05/23 00:04:02;;;;;;;7.35;3.88;;;;;;;16.20;55.36;94812.09;2958382;40;20053;-68
2021/05/23 00:06:04;;;;;;;8.98;4.13;;;;;;;16.22;55.71;94816.22;2957669;40;20154;-72
2021/05/23 00:08:10;;;;;;;7.82;4.00;;;;;;;16.24;55.72;94821.28;2957242;40;20079;-69
2021/05/23 00:10:11;;;;;;;7.60;3.97;;;;;;;16.21;55.95;94825.16;2949024;40;20072;-68
2021/05/23 00:12:16;;;;;;;11.05;4.57;;;;;;;16.22;56.10;94824.16;2958075;40;20053;-68
2021/05/23 00:14:18;;;;;;;6.68;4.28;;;;;;;16.25;55.91;94821.13;2956364;40;20134;-68
2021/05/23 00:16:22;;;;;;;8.38;4.45;;;;;;;16.28;55.32;94815.47;2955726;40;20086;-69
2021/05/23 00:18:25;;;;;;;9.25;4.22;;;;;;;16.33;55.14;94818.34;2957979;40;20503;-70
2021/05/23 00:20:27;;;;;;;7.00;4.30;;;;;;;16.32;55.07;94813.22;2960696;40;20051;-81
2021/05/23 00:22:29;;;;;;;7.75;4.03;;;;;;;16.10;56.31;94809.81;2959839;40;20140;-82
2021/05/23 00:24:32;;;;;;;6.45;4.05;;;;;;;15.94;56.77;94824.91;2960166;40;20097;-80
2021/05/23 00:26:33;;;;;;;9.02;4.15;;;;;;;15.95;57.18;94815.16;2958729;40;20144;-71
2021/05/23 00:28:36;;;;;;;8.80;4.40;;;;;;;15.95;57.23;94813.34;2958061;40;20055;-70
2021/05/23 00:30:38;;;;;;;6.75;3.92;;;;;;;16.02;57.06;94823.16;2957820;40;20057;-70
2021/05/23 00:32:40;;;;;;;9.50;4.28;;;;;;;16.06;56.63;94816.47;2954773;40;20415;-70
2021/05/23 00:34:42;;;;;;;6.85;3.65;;;;;;;16.08;56.17;94817.09;2960065;40;20084;-67
2021/05/23 00:36:44;;;;;;;7.10;4.47;;;;;;;16.15;55.86;94812.69;2958053;40;20133;-70
2021/05/23 00:38:46;;;;;;;8.63;4.47;;;;;;;16.15;56.25;94817.97;2958903;40;20090;-68
2021/05/23 00:40:47;;;;;;;9.70;4.60;;;;;;;16.17;56.35;94816.81;2957401;40;20068;-69
2021/05/23 00:42:49;;;;;;;9.32;4.05;;;;;;;16.16;56.23;94819.63;2960306;40;20100;-69
2021/05/23 00:44:52;;;;;;;7.50;3.83;;;;;;;16.15;55.99;94817.97;2954611;40;20073;-70
2021/05/23 00:46:53;;;;;;;7.55;4.28;;;;;;;16.10;56.36;94821.19;2958542;40;20067;-68
2021/05/23 00:48:55;;;;;;;6.97;4.25;;;;;;;16.08;56.50;94822.38;2958861;40;20094;-69
2021/05/23 00:50:57;;;;;;;8.00;4.30;;;;;;;16.03;56.99;94820.31;2958820;40;20138;-70
2021/05/23 00:53:00;;;;;;;5.78;3.50;;;;;;;15.62;57.54;94825.38;2949288;40;20289;-69
2021/05/23 00:55:03;;;;;;;14.73;4.00;;;;;;;15.58;58.11;94832.84;2958558;40;20057;-69
2021/05/23 00:57:05;;;;;;;7.45;3.75;;;;;;;15.62;57.81;94831.47;2959194;40;20069;-69
2021/05/23 00:59:07;;;;;;;7.20;4.65;;;;;;;15.66;57.86;94835.38;2958807;40;20081;-70
2021/05/23 01:01:11;;;;;;;6.95;3.50;;;;;;;15.67;57.79;94841.47;2957042;40;20085;-69
2021/05/23 01:03:28;;;;;;;5.85;3.85;;;;;;;15.05;59.03;94838.28;2959553;40;20068;-70
2021/05/23 01:05:30;;;;;;;10.07;4.20;;;;;;;14.93;59.54;94824.75;2958901;40;20086;-69
2021/05/23 01:07:31;;;;;;;6.25;3.88;;;;;;;15.03;59.16;94824.47;2954432;40;20065;-68
2021/05/23 01:09:34;;;;;;;6.32;3.78;;;;;;;15.17;59.20;94819.38;2957595;40;20059;-70
2021/05/23 01:11:42;;;;;;;5.65;3.83;;;;;;;15.30;59.56;94830.09;2958801;40;20317;-69
2021/05/23 01:13:43;;;;;;;9.43;4.10;;;;;;;15.36;59.03;94832.00;2958474;40;20292;-69
2021/05/23 01:15:47;;;;;;;6.10;3.80;;;;;;;15.45;58.33;94836.16;2957157;40;20045;-67
2021/05/23 01:17:49;;;;;;;;;;;;;;;15.52;58.20;94837.03;2959597;40;20060;-80
2021/05/23 01:20:08;;;;;;;9.77;4.22;;;;;;;15.55;58.45;94836.69;2958161;40;19950;-80
2021/05/23 01:22:12;;;;;;;6.78;3.75;;;;;;;15.56;58.09;94826.94;2959049;40;20449;-79
2021/05/23 01:24:22;;;;;;;6.18;4.18;;;;;;;15.57;57.83;94824.13;2959687;40;20061;-81
2021/05/23 01:26:25;;;;;;;6.65;3.80;;;;;;;15.64;57.52;94820.69;2958932;40;20064;-79
2021/05/23 01:28:27;;;;;;;7.38;4.18;;;;;;;15.62;57.61;94814.81;2964640;40;20085;-80
2021/05/23 01:30:35;;;;;;;6.15;3.55;;;;;;;15.62;57.15;94813.00;2957560;40;20141;-78
2021/05/23 01:32:38;;;;;;;7.60;3.97;;;;;;;15.60;57.69;94811.53;2954349;40;20089;-82
2021/05/23 01:34:40;;;;;;;8.82;4.22;;;;;;;15.55;57.57;94818.19;2957991;40;20089;-81
2021/05/23 01:36:41;;;;;;;8.27;3.80;;;;;;;15.55;57.87;94823.47;2959929;40;20089;-81
2021/05/23 01:38:43;;;;;;;6.90;3.60;;;;;;;15.53;57.61;94819.38;2956652;40;20094;-83
2021/05/23 01:40:47;;;;;;;7.57;3.92;;;;;;;15.52;57.56;94828.31;2956067;40;20307;-80
2021/05/23 01:42:49;;;;;;;6.68;3.53;;;;;;;15.49;57.96;94824.22;2959907;40;20053;-80
2021/05/23 01:44:51;;;;;;;5.22;3.17;;;;;;;15.24;57.60;94815.00;2959488;40;20130;-80
2021/05/23 01:46:53;;;;;;;6.03;3.50;;;;;;;15.18;57.68;94818.38;2955550;40;20073;-79
2021/05/23 01:48:55;;;;;;;5.43;3.20;;;;;;;15.19;57.53;94826.09;2960885;40;20068;-82
2021/05/23 01:50:57;;;;;;;5.10;3.63;;;;;;;15.26;57.80;94831.47;2958129;40;21495;-82
2021/05/23 01:53:02;;;;;;;5.13;3.17;;;;;;;15.14;57.74;94833.75;2960272;40;20314;-81
2021/05/23 01:55:04;;;;;;;10.98;3.53;;;;;;;14.64;58.79;94836.13;2958943;40;20056;-81
2021/05/23 01:57:06;;;;;;;7.40;3.08;;;;;;;14.27;59.86;94840.38;2959862;40;20053;-80
2021/05/23 01:59:08;;;;;;;6.97;3.22;;;;;;;14.20;60.16;94828.94;2960196;40;20123;-81
2021/05/23 02:01:10;;;;;;;5.63;2.95;;;;;;;13.85;61.05;94825.94;2967130;40;20096;-80
2021/05/23 02:03:13;;;;;;;5.75;3.05;;;;;;;13.91;61.61;94832.28;2957555;40;20069;-79
2021/05/23 02:05:15;;;;;;;4.78;2.60;;;;;;;13.98;61.21;94835.03;2952273;40;20378;-81
2021/05/23 02:07:17;;;;;;;6.53;2.90;;;;;;;14.10;60.92;94829.16;2955977;40;20370;-81
2021/05/23 02:09:19;;;;;;;4.88;3.63;;;;;;;14.25;60.08;94831.03;2959709;40;20138;-80
2021/05/23 02:11:20;;;;;;;7.10;3.38;;;;;;;14.39;59.75;94848.69;2959522;40;20072;-80
2021/05/23 02:13:22;;;;;;;6.38;3.60;;;;;;;14.45;60.18;94837.41;2959810;40;20076;-80
2021/05/23 02:15:24;;;;;;;5.80;3.45;;;;;;;14.33;60.42;94836.22;2956863;40;20118;-80
2021/05/23 02:17:26;;;;;;;3.95;3.25;;;;;;;14.38;59.97;94839.13;2952263;40;20368;-81
2021/05/23 02:19:28;;;;;;;6.38;3.67;;;;;;;14.44;60.21;94830.53;2957372;40;20140;-81
2021/05/23 02:21:30;;;;;;;5.20;3.75;;;;;;;14.53;59.58;94829.44;2959825;40;20302;-80
2021/05/23 02:23:32;;;;;;;8.23;3.50;;;;;;;14.63;59.24;94825.75;2959732;40;20415;-80
2021/05/23 02:25:34;;;;;;;5.20;3.75;;;;;;;14.68;59.46;94832.13;2960048;40;20053;-80
2021/05/23 02:27:40;;;;;;;5.47;3.47;;;;;;;14.73;59.37;94827.13;2960113;40;20051;-80
2021/05/23 02:29:41;;;;;;;9.27;3.75;;;;;;;14.74;59.82;94826.13;2958945;40;20053;-81
2021/05/23 02:31:43;;;;;;;5.97;3.50;;;;;;;14.76;59.28;94828.59;2951959;40;20429;-68
2021/05/23 02:33:45;;;;;;;10.75;4.47;;;;;;;14.78;59.72;94837.13;2956370;40;20418;-68
2021/05/23 02:35:51;;;;;;;12.93;4.95;;;;;;;14.75;59.44;94837.47;2945368;40;20086;-69
2021/05/23 02:37:53;;;;;;;7.60;3.88;;;;;;;14.76;59.68;94839.13;2957968;40;20052;-69
2021/05/23 02:39:55;;;;;;;6.47;3.47;;;;;;;14.79;59.83;94838.75;2958460;40;20049;-70
2021/05/23 02:41:57;;;;;;;6.93;3.50;;;;;;;14.74;59.96;94838.50;2955498;40;20453;-69
2021/05/23 02:43:59;;;;;;;5.25;3.50;;;;;;;14.72;60.26;94843.13;2957576;40;20052;-68
2021/05/23 02:46:03;;;;;;;6.70;3.78;;;;;;;14.68;60.23;94841.84;2957272;40;20071;-69
2021/05/23 02:48:07;;;;;;;6.18;3.97;;;;;;;14.70;60.64;94845.94;2959174;40;20088;-69
2021/05/23 02:50:12;;;;;;;4.63;3.53;;;;;;;14.70;60.33;94835.41;2957372;40;20083;-69
2021/05/23 02:52:14;;;;;;;5.75;3.45;;;;;;;14.73;60.22;94842.13;2957673;40;20055;-68
2021/05/23 02:54:15;;;;;;;4.45;3.30;;;;;;;14.71;60.08;94846.75;2957716;40;20133;-69
2021/05/23 02:56:17;;;;;;;7.68;3.55;;;;;;;14.69;59.59;94840.84;2952532;40;20085;-70
2021/05/23 02:58:19;;;;;;;5.90;3.30;;;;;;;14.69;59.83;94839.03;2958763;40;20048;-67
2021/05/23 03:00:22;;;;;;;6.47;3.60;;;;;;;14.59;60.46;94842.94;2958241;40;20063;-69
2021/05/23 03:02:24;;;;;;;5.22;3.05;;;;;;;14.56;60.06;94840.66;2957173;40;20188;-71
2021/05/23 03:04:26;;;;;;;6.25;3.42;;;;;;;14.59;60.16;94837.66;2957080;40;20120;-69
2021/05/23 03:06:28;;;;;;;8.30;3.55;;;;;;;14.66;60.05;94839.38;2957707;40;20157;-69
2021/05/23 03:08:29;;;;;;;6.10;3.53;;;;;;;14.68;60.14;94842.66;2950435;40;20105;-68
2021/05/23 03:10:53;;;;;;;5.82;3.42;;;;;;;14.65;59.91;94840.41;2955770;40;20053;-69
2021/05/23 03:12:55;;;;;;;4.32;3.15;;;;;;;14.68;59.75;94847.94;2954350;40;20053;-70
2021/05/23 03:14:57;;;;;;;4.63;3.50;;;;;;;14.68;59.47;94855.84;2956216;40;20582;-81
2021/05/23 03:16:59;;;;;;;6.97;3.92;;;;;;;14.74;59.30;94854.31;2956237;40;20056;-82
2021/05/23 03:19:00;;;;;;;6.25;3.83;;;;;;;14.79;59.46;94854.59;2955213;40;20220;-80
2021/05/23 03:21:02;;;;;;;4.70;3.67;;;;;;;14.83;58.84;94850.59;2957645;40;20207;-69
2021/05/23 03:23:05;;;;;;;5.53;3.60;;;;;;;14.86;59.40;94854.66;2957343;40;20057;-69
2021/05/23 03:25:08;;;;;;;5.70;3.88;;;;;;;14.92;59.12;94856.59;2940949;40;20076;-69
2021/05/23 03:27:09;;;;;;;6.43;3.85;;;;;;;14.98;58.64;94855.88;2954175;40;20337;-69
2021/05/23 03:29:11;;;;;;;5.75;3.75;;;;;;;15.05;58.60;94856.75;2956063;40;20093;-69
2021/05/23 03:31:13;;;;;;;7.07;3.60;;;;;;;15.08;58.73;94853.78;2956641;40;20311;-69
2021/05/23 03:33:15;;;;;;;8.68;4.28;;;;;;;15.03;58.91;94861.41;2958070;40;20053;-69
2021/05/23 03:35:17;;;;;;;6.20;4.05;;;;;;;14.98;58.91;94863.78;2955622;40;20139;-69
2021/05/23 03:37:18;;;;;;;6.22;4.07;;;;;;;14.41;60.65;94864.31;2949226;40;20053;-68
2021/05/23 03:39:20;;;;;;;8.70;4.00;;;;;;;13.91;62.63;94869.16;2956293;40;20057;-68
2021/05/23 03:41:22;;;;;;;5.20;3.58;;;;;;;13.93;62.39;94865.34;2955846;40;20080;-69
2021/05/23 03:43:24;;;;;;;8.18;4.25;;;;;;;14.06;62.53;94869.22;2958742;40;20055;-68
2021/05/23 03:45:26;;;;;;;5.90;4.22;;;;;;;13.97;62.47;94879.00;2955422;40;20056;-69
2021/05/23 03:47:27;;;;;;;7.18;4.25;;;;;;;13.97;62.88;94870.28;2954499;40;20157;-70
2021/05/23 03:49:30;;;;;;;9.35;4.25;;;;;;;14.11;62.10;94878.25;2957255;40;20416;-68
2021/05/23 03:51:31;;;;;;;14.50;3.95;;;;;;;14.24;61.96;94887.34;2958630;40;20061;-70
2021/05/23 03:53:37;;;;;;;6.07;4.22;;;;;;;14.41;61.42;94877.50;2958640;40;20119;-69
2021/05/23 03:55:39;;;;;;;6.32;4.00;;;;;;;14.58;60.96;94888.75;2955219;40;20057;-70
2021/05/23 03:57:41;;;;;;;6.47;3.83;;;;;;;14.77;60.14;94872.41;2952161;40;20410;-69
2021/05/23 03:59:43;;;;;;;7.72;3.90;;;;;;;14.94;59.91;94883.59;2959058;40;20048;-69
2021/05/23 04:01:45;;;;;;;6.18;4.38;;;;;;;15.05;59.53;94880.50;2957238;40;20071;-69
2021/05/23 04:03:47;;;;;;;8.82;4.47;;;;;;;15.15;59.27;94882.88;2958591;40;20426;-69
2021/05/23 04:05:49;;;;;;;7.18;4.32;;;;;;;15.13;58.94;94885.69;2959664;40;20114;-68
2021/05/23 04:07:52;;;;;;;7.50;4.15;;;;;;;15.15;59.38;94886.34;2953699;40;20157;-70
2021/05/23 04:09:55;;;;;;;6.43;4.27;;;;;;;15.08;59.38;94890.72;2958577;40;20471;-69
2021/05/23 04:11:57;;;;;;;13.98;6.25;;;;;;;14.89;59.94;94893.91;2959247;40;20201;-69
2021/05/23 04:13:59;;;;;;;9.10;5.97;;;;;;;14.83;60.77;94891.97;2959862;40;20057;-69
2021/05/23 04:16:01;;;;;;;9.88;5.18;;;;;;;14.91;60.19;94887.44;2958546;40;20659;-69
2021/05/23 04:18:03;;;;;;;7.82;5.40;;;;;;;15.03;60.10;94897.53;2958983;40;20058;-70
2021/05/23 04:20:07;;;;;;;9.20;5.47;;;;;;;15.20;59.50;94895.53;2959430;40;20079;-70
2021/05/23 04:22:10;;;;;;;10.18;5.80;;;;;;;15.20;59.74;94903.44;2958518;40;20053;-69
2021/05/23 04:24:12;;;;;;;12.37;6.03;;;;;;;15.22;59.82;94904.09;2958651;40;20065;-70
2021/05/23 04:26:14;;;;;;;13.23;6.63;;;;;;;15.02;59.96;94906.47;2958431;40;20292;-70
2021/05/23 04:28:16;;;;;;;12.50;6.60;;;;;;;14.85;60.57;94901.34;2957183;40;20180;-70
2021/05/23 04:30:21;;;;;;;15.40;6.80;;;;;;;14.90;60.49;94906.06;2959537;40;20061;-69
2021/05/23 04:32:22;;;;;;;9.18;6.18;;;;;;;14.93;60.68;94911.81;2957994;40;20061;-69
2021/05/23 04:34:24;;;;;;;12.63;6.65;;;;;;;14.93;60.51;94908.38;2959614;40;20120;-70
2021/05/23 04:36:26;;;;;;;10.65;6.63;;;;;;;14.89;61.09;94907.88;2957913;40;20156;-68
2021/05/23 04:38:28;;;;;;;12.35;7.20;;;;;;;14.92;60.99;94904.88;2957832;40;20137;-70
2021/05/23 04:40:29;;;;;;;12.88;7.13;;;;;;;14.98;60.57;94910.44;2956790;40;20423;-69
2021/05/23 04:42:31;;;;;;;8.95;6.72;;;;;;;15.03;60.68;94902.81;2958922;40;20061;-70
2021/05/23 04:44:53;;;;;;;9.77;6.75;;;;;;;15.05;60.44;94906.09;2959441;40;20029;-68
2021/05/23 04:46:55;;;;;;;12.60;6.85;;;;;;;15.00;60.29;94913.72;2958505;40;20064;-70
2021/05/23 04:48:57;;;;;;;11.35;6.53;;;;;;;15.12;59.97;94909.63;2959370;40;20064;-70
2021/05/23 04:50:59;;;;;;;10.88;7.38;;;;;;;15.31;59.45;94913.53;2957888;40;20061;-69
2021/05/23 04:53:01;;;;;;;11.88;6.25;;;;;;;15.49;59.59;94907.91;2956294;40;20061;-70
2021/05/23 04:55:04;;;;;;;10.63;6.45;;;;;;;15.68;58.76;94899.41;2953712;40;20049;-70
2021/05/23 04:57:06;;;;;;;14.85;7.93;;;;;;;15.88;58.21;94906.75;2958289;40;20144;-69
2021/05/23 04:59:08;;;;;;;13.57;6.95;;;;;;;16.04;57.71;94903.06;2957441;40;20146;-70
2021/05/23 05:01:10;;;;;;;10.35;7.75;;;;;;;16.18;57.23;94902.19;2957055;40;20134;-68
2021/05/23 05:03:12;;;;;;;41.28;24.30;;;;;;;16.32;57.50;94903.94;2953244;40;20274;-70
2021/05/23 05:05:14;;;;;;;17.15;11.52;;;;;;;16.40;57.25;94904.81;2958250;40;20060;-70
2021/05/23 05:07:16;;;;;;;9.45;7.10;;;;;;;16.50;57.05;94907.97;2958553;40;20060;-69
2021/05/23 05:09:18;;;;;;;9.50;7.10;;;;;;;16.62;57.01;94898.50;2947326;40;20053;-71
2021/05/23 05:11:19;;;;;;;13.13;7.85;;;;;;;16.74;56.70;94907.53;2952342;40;20057;-70
2021/05/23 05:13:21;;;;;;;13.52;6.72;;;;;;;16.79;56.26;94907.78;2958991;40;20071;-70
2021/05/23 05:15:23;;;;;;;10.55;6.70;;;;;;;16.83;56.31;94910.91;2957255;40;20075;-70
2021/05/23 05:17:25;;;;;;;11.48;6.60;;;;;;;16.85;56.16;94919.47;2950489;40;20077;-70
2021/05/23 05:19:27;;;;;;;8.70;7.15;;;;;;;16.90;56.40;94921.53;2958012;40;20049;-69
2021/05/23 05:21:30;;;;;;;16.13;7.10;;;;;;;16.93;54.89;94927.25;2951514;40;20141;-69
2021/05/23 05:23:31;;;;;;;11.65;7.13;;;;;;;16.68;55.77;94913.59;2957563;40;20136;-69
2021/05/23 05:25:33;;;;;;;10.15;6.30;;;;;;;16.61;56.03;94906.63;2958887;40;20049;-70
2021/05/23 05:27:35;;;;;;;9.73;6.47;;;;;;;16.66;56.23;94902.41;2957595;40;20425;-70
2021/05/23 05:29:37;;;;;;;9.68;6.75;;;;;;;16.66;55.30;94899.75;2958656;40;20079;-79
2021/05/23 05:31:39;;;;;;;11.43;7.13;;;;;;;16.80;55.08;94911.28;2959209;40;20270;-81
2021/05/23 05:33:41;;;;;;;10.45;6.20;;;;;;;16.99;54.35;94904.47;2957259;40;20061;-82
2021/05/23 05:35:42;;;;;;;10.75;6.75;;;;;;;17.22;54.02;94900.78;2956200;40;20104;-81
2021/05/23 05:37:44;;;;;;;10.82;6.07;;;;;;;17.25;53.68;94897.72;2961278;40;20098;-82
2021/05/23 05:39:46;;;;;;;7.88;6.00;;;;;;;17.24;54.20;94898.75;2961490;40;20048;-82
2021/05/23 05:41:48;;;;;;;12.05;6.57;;;;;;;17.17;53.67;94899.53;2959015;40;20049;-81
2021/05/23 05:43:51;;;;;;;12.07;6.20;;;;;;;17.08;53.47;94897.22;2958509;40;20101;-85
2021/05/23 05:45:52;;;;;;;7.55;5.78;;;;;;;16.85;54.31;94903.59;2955320;40;20057;-80
2021/05/23 05:47:54;;;;;;;9.68;5.70;;;;;;;16.85;53.40;94905.44;2960150;40;20096;-83
2021/05/23 05:49:56;;;;;;;9.38;5.80;;;;;;;16.83;53.74;94913.53;2958945;40;20089;-81
2021/05/23 05:51:58;;;;;;;15.20;6.57;;;;;;;16.69;54.58;94914.41;2959586;40;20052;-82
2021/05/23 05:54:00;;;;;;;8.77;5.78;;;;;;;16.87;54.25;94914.00;2957313;40;20426;-83
2021/05/23 05:56:03;;;;;;;10.07;6.38;;;;;;;17.09;53.79;94914.75;2958811;40;20425;-82
2021/05/23 05:58:05;;;;;;;8.23;6.03;;;;;;;17.13;54.31;94916.81;2956199;40;20060;-83
2021/05/23 06:00:07;;;;;;;9.43;6.78;;;;;;;17.26;54.06;94915.25;2958541;40;20049;-82
2021/05/23 06:02:09;;;;;;;11.15;6.05;;;;;;;17.45;53.58;94919.84;2957569;40;20089;-82
2021/05/23 06:04:11;;;;;;;12.75;6.63;;;;;;;17.48;52.26;94924.72;2956970;40;20206;-86
2021/05/23 06:06:13;;;;;;;12.70;5.63;;;;;;;17.47;51.87;94922.31;2941587;40;728805;-82
2021/05/23 06:08:14;;;;;;;7.20;5.22;;;;;;;17.37;51.30;94923.44;2960028;40;20061;-83
2021/05/23 06:10:17;;;;;;;8.00;5.32;;;;;;;17.38;50.84;94925.09;2959133;40;20056;-79
2021/05/23 06:12:19;;;;;;;5.80;4.65;;;;;;;17.16;51.77;94928.81;2961509;40;20251;-85
2021/05/23 06:16:41;;;;;;;9.02;4.50;;;;;;;17.03;51.60;94940.13;2960460;40;20142;-80
2021/05/23 06:18:45;;;;;;;5.53;4.18;;;;;;;17.08;51.12;94939.56;2960536;40;20065;-81
2021/05/23 06:20:47;;;;;;;7.65;5.57;;;;;;;16.87;51.74;94937.81;2951579;40;20138;-84
2021/05/23 06:22:49;;;;;;;7.80;5.80;;;;;;;17.05;52.12;94939.97;2955567;40;20053;-82
2021/05/23 06:24:51;;;;;;;8.68;5.97;;;;;;;17.19;52.02;94942.50;2956922;40;20076;-81
2021/05/23 06:26:52;;;;;;;6.63;4.88;;;;;;;17.27;50.88;94938.06;2956000;40;20417;-82
2021/05/23 06:28:54;;;;;;;9.05;5.32;;;;;;;17.51;50.89;94939.41;2959059;40;20314;-82
2021/05/23 06:30:56;;;;;;;6.90;5.15;;;;;;;17.73;50.39;94937.50;2960124;40;20137;-81
2021/05/23 06:32:58;;;;;;;6.53;4.85;;;;;;;17.95;49.75;94940.88;2959740;40;20069;-81
2021/05/23 06:34:59;;;;;;;10.65;5.85;;;;;;;18.15;50.46;94938.25;2959669;40;20478;-82
2021/05/23 06:37:01;;;;;;;8.20;5.75;;;;;;;18.44;49.35;94944.25;2957918;40;20045;-83
2021/05/23 06:39:05;;;;;;;9.13;5.22;;;;;;;18.58;49.13;94948.53;2956328;40;20069;-81
2021/05/23 06:41:06;;;;;;;8.45;6.00;;;;;;;18.39;48.40;94947.50;2957949;40;20089;-81
2021/05/23 06:43:08;;;;;;;10.75;5.05;;;;;;;18.39;48.58;94945.69;2959655;40;20318;-85
2021/05/23 06:45:11;;;;;;;7.88;5.07;;;;;;;18.56;48.28;94938.16;2954280;40;20129;-82
2021/05/23 06:47:12;;;;;;;6.85;4.75;;;;;;;18.79;47.82;94935.13;2958397;40;20075;-83
2021/05/23 06:49:14;;;;;;;10.55;5.10;;;;;;;18.98;47.54;94935.34;2957781;40;20388;-81
2021/05/23 06:51:16;;;;;;;8.00;5.20;;;;;;;19.18;47.01;94936.13;2959700;40;20060;-82
2021/05/23 06:53:18;;;;;;;7.32;4.40;;;;;;;19.11;46.76;94934.50;2959784;40;20134;-82
2021/05/23 06:55:20;;;;;;;7.55;4.35;;;;;;;18.93;46.68;94932.47;2958534;40;20100;-82
2021/05/23 06:57:22;;;;;;;10.13;4.50;;;;;;;18.85;47.18;94930.03;2959972;40;20103;-81
2021/05/23 06:59:23;;;;;;;5.97;4.47;;;;;;;18.97;47.45;94925.72;2959637;40;20065;-83
2021/05/23 07:01:25;;;;;;;10.75;4.20;;;;;;;19.13;46.36;94927.97;2954528;40;20056;-82
2021/05/23 07:03:27;;;;;;;6.03;4.35;;;;;;;19.01;46.07;94930.44;2959771;40;20410;-82
2021/05/23 07:05:29;;;;;;;6.28;4.20;;;;;;;19.19;46.16;94921.03;2959165;40;20110;-84
2021/05/23 07:07:32;;;;;;;5.38;4.13;;;;;;;19.40;46.22;94917.28;2953909;40;20105;-80
2021/05/23 07:09:34;;;;;;;6.97;3.45;;;;;;;19.62;45.76;94918.66;2953368;40;20057;-84
2021/05/23 07:11:36;;;;;;;7.18;4.18;;;;;;;19.75;45.22;94917.81;2956756;40;20068;-81
2021/05/23 07:13:38;;;;;;;5.45;4.20;;;;;;;19.64;44.89;94918.47;2956005;40;20065;-84
2021/05/23 07:15:40;;;;;;;5.82;4.22;;;;;;;19.69;44.67;94915.16;2959313;40;20069;-84
2021/05/23 07:17:41;;;;;;;7.00;4.18;;;;;;;19.89;45.04;94912.44;2958698;40;20100;-80
2021/05/23 07:19:43;;;;;;;5.90;4.43;;;;;;;19.95;44.40;94903.63;2957343;40;20148;-69
2021/05/23 07:21:46;;;;;;;7.35;3.95;;;;;;;20.18;44.37;94909.22;2954003;40;20185;-71
2021/05/23 07:23:48;;;;;;;8.10;4.32;;;;;;;20.34;44.15;94913.22;2958860;40;20060;-70
2021/05/23 07:25:50;;;;;;;5.93;3.90;;;;;;;20.36;43.85;94921.81;2951705;40;20057;-70
2021/05/23 07:27:51;;;;;;;6.80;4.00;;;;;;;20.24;44.40;94924.34;2957025;40;20483;-70
2021/05/23 07:29:53;;;;;;;7.13;4.10;;;;;;;20.16;44.71;94918.47;2958100;40;20065;-69
2021/05/23 07:31:55;;;;;;;8.82;4.60;;;;;;;19.92;45.27;94923.47;2954894;40;20057;-72
2021/05/23 07:33:57;;;;;;;14.70;4.57;;;;;;;19.78;45.91;94921.91;2951299;40;20103;-71
2021/05/23 07:35:59;;;;;;;7.32;4.32;;;;;;;19.83;45.59;94914.94;2954407;40;20101;-70
2021/05/23 07:38:00;;;;;;;8.52;4.00;;;;;;;19.65;45.85;94915.56;2957240;40;20403;-70
2021/05/23 07:40:04;;;;;;;7.10;4.00;;;;;;;19.91;45.79;94907.72;2952112;40;20141;-70
2021/05/23 07:42:06;;;;;;;5.05;3.90;;;;;;;20.18;45.47;94908.41;2956158;40;20311;-69
2021/05/23 07:44:07;;;;;;;7.72;3.60;;;;;;;20.43;45.61;94908.44;2955997;40;20449;-70
2021/05/23 07:46:09;;;;;;;6.95;3.90;;;;;;;20.63;45.35;94909.16;2957305;40;20088;-70
2021/05/23 07:48:11;;;;;;;8.82;4.18;;;;;;;20.73;44.70;94915.84;2957590;40;20060;-69
2021/05/23 07:50:13;;;;;;;6.28;4.00;;;;;;;20.69;44.83;94911.97;2956039;40;20064;-71
2021/05/23 07:52:15;;;;;;;9.15;3.78;;;;;;;20.42;44.97;94914.81;2957112;40;20045;-71
2021/05/23 07:54:17;;;;;;;5.60;3.17;;;;;;;19.98;45.97;94900.53;2958519;40;20064;-71
2021/05/23 07:56:18;;;;;;;6.22;3.83;;;;;;;19.67;46.81;94901.28;2954779;40;20195;-69
2021/05/23 07:58:22;;;;;;;8.82;3.90;;;;;;;19.49;47.16;94904.56;2953715;40;20067;-70
2021/05/23 08:00:24;;;;;;;6.72;3.78;;;;;;;19.62;46.96;94901.91;2956709;40;20089;-70
2021/05/23 08:02:31;;;;;;;4.85;3.42;;;;;;;19.92;46.67;94904.88;2951092;40;20110;-70
2021/05/23 08:04:33;;;;;;;9.23;4.28;;;;;;;20.12;46.46;94906.59;2955053;40;20421;-71
2021/05/23 08:06:35;;;;;;;11.75;3.80;;;;;;;20.42;45.99;94906.84;2954084;40;20441;-69
2021/05/23 08:08:37;;;;;;;5.88;3.38;;;;;;;20.57;46.15;94901.22;2957780;40;20069;-70
2021/05/23 08:10:38;;;;;;;6.07;4.50;;;;;;;20.77;46.55;94904.53;2957832;40;20181;-70
2021/05/23 08:12:40;;;;;;;6.53;2.90;;;;;;;21.02;45.48;94906.41;2957412;40;20059;-69
2021/05/23 08:14:42;;;;;;;7.13;4.25;;;;;;;21.20;44.59;94898.41;2957119;40;20065;-70
2021/05/23 08:16:45;;;;;;;7.35;3.67;;;;;;;21.27;44.42;94896.53;2957573;40;20055;-70
2021/05/23 08:18:47;;;;;;;4.10;2.92;;;;;;;21.46;43.97;94885.88;2958223;40;20383;-69
2021/05/23 08:20:50;;;;;;;11.07;5.63;;;;;;;21.43;43.21;94892.47;2956522;40;20141;-70
2021/05/23 08:22:52;;;;;;;11.55;6.40;;;;;;;21.61;43.61;94883.66;2947707;40;20053;-70
2021/05/23 08:24:54;;;;;;;24.63;9.43;;;;;;;21.76;42.58;94879.81;2955870;40;20072;-68
2021/05/23 08:26:56;;;;;;;8.25;4.68;;;;;;;21.88;42.39;94878.03;2956641;40;20142;-70
2021/05/23 08:28:57;;;;;;;5.50;2.85;;;;;;;22.03;42.08;94873.09;2957270;40;20061;-69
2021/05/23 08:31:01;;;;;;;5.10;2.95;;;;;;;22.22;41.84;94873.03;2956994;40;20294;-70
2021/05/23 08:33:03;;;;;;;4.25;2.47;;;;;;;22.36;41.21;94879.84;2949091;40;20065;-72
2021/05/23 08:35:06;;;;;;;5.72;2.72;;;;;;;22.42;40.22;94881.59;2957054;40;20049;-69
2021/05/23 08:37:08;;;;;;;5.70;2.80;;;;;;;22.55;40.93;94874.44;2948922;40;20626;-70
2021/05/23 08:39:10;;;;;;;4.45;2.55;;;;;;;22.63;39.94;94882.94;2958676;40;20085;-69
2021/05/23 08:41:18;;;;;;;9.25;3.60;;;;;;;22.62;40.96;94878.63;2955924;40;20450;-69
2021/05/23 08:43:20;;;;;;;16.00;7.05;;;;;;;22.46;39.38;94881.97;2955743;40;20202;-70
2021/05/23 08:45:22;;;;;;;28.60;13.73;;;;;;;22.15;39.55;94883.78;2957378;40;20084;-70
2021/05/23 08:47:25;;;;;;;7.07;4.40;;;;;;;21.84;40.09;94879.50;2958819;40;20068;-70
2021/05/23 08:49:28;;;;;;;9.05;4.70;;;;;;;21.97;40.53;94878.53;2958048;40;20232;-70
2021/05/23 08:51:30;;;;;;;;;;;;;;;22.20;40.00;94881.28;2958368;40;20090;-70
2021/05/23 08:53:31;;;;;;;8.90;3.78;;;;;;;22.40;39.59;94874.88;2959693;40;19944;-69
2021/05/23 08:55:36;;;;;;;6.07;3.60;;;;;;;21.98;40.53;94874.81;2958951;40;20437;-68
2021/05/23 08:57:38;;;;;;;9.93;4.43;;;;;;;22.11;40.45;94874.63;2955325;40;20394;-70
2021/05/23 08:59:39;;;;;;;23.08;9.70;;;;;;;22.34;40.59;94878.44;2956263;40;20121;-71
2021/05/23 09:01:42;;;;;;;8.98;3.63;;;;;;;22.60;40.06;94867.34;2951291;40;20061;-69
2021/05/23 09:03:55;;;;;;;4.15;2.28;;;;;;;22.58;39.02;94879.31;2948949;40;20318;-70
2021/05/23 09:05:57;;;;;;;9.00;3.40;;;;;;;22.54;38.80;94873.59;2951582;40;20410;-71
2021/05/23 09:08:00;;;;;;;8.00;4.43;;;;;;;22.56;39.15;94876.84;2951729;40;20061;-69
2021/05/23 09:10:02;;;;;;;21.35;9.35;;;;;;;22.62;38.82;94883.16;2959254;40;20442;-70
2021/05/23 09:12:09;;;;;;;5.80;3.70;;;;;;;22.36;38.70;94879.03;2957641;40;20056;-71
2021/05/23 09:14:11;;;;;;;4.28;3.05;;;;;;;22.12;38.34;94878.13;2953085;40;20065;-70
2021/05/23 09:16:13;;;;;;;7.95;4.60;;;;;;;22.16;39.34;94871.28;2954214;40;20130;-71
2021/05/23 09:18:16;;;;;;;6.70;2.97;;;;;;;22.39;39.76;94876.72;2959182;40;20069;-70
2021/05/23 09:20:18;;;;;;;5.80;3.20;;;;;;;22.68;39.23;94866.22;2956871;40;20072;-71
2021/05/23 09:22:24;;;;;;;10.43;3.22;;;;;;;22.96;39.10;94864.72;2956619;40;20418;-71
2021/05/23 09:24:26;;;;;;;5.85;2.80;;;;;;;23.13;38.63;94873.69;2952895;40;20138;-69
2021/05/23 09:26:39;;;;;;;5.53;2.70;;;;;;;23.09;38.46;94869.88;2957336;40;20104;-71
2021/05/23 09:28:41;;;;;;;6.38;2.50;;;;;;;23.25;38.30;94860.31;2954412;40;20101;-70
2021/05/23 09:30:45;;;;;;;5.60;2.83;;;;;;;23.31;38.19;94862.88;2955260;40;20076;-71
2021/05/23 09:32:47;;;;;;;;;;;;;;;23.37;37.37;94861.13;2958086;40;20187;-69
2021/05/23 09:34:49;;;;;;;8.15;2.92;;;;;;;23.51;37.44;94861.66;2958252;40;19929;-72
2021/05/23 09:36:51;;;;;;;4.93;2.65;;;;;;;23.58;37.28;94862.38;2957106;40;20065;-69
2021/05/23 09:38:59;;;;;;;4.32;3.00;;;;;;;23.79;36.86;94854.78;2953788;40;20088;-71